Time;durP1;ratioP1;P1;durP2;ratioP2;P2;SDS_P1;SDS_P2;PMS_P1;PMS_P2;Temp;Humidity;BMP_temperature;BMP_pressure;BME280_temperature;BME280_humidity;BME280_pressure;Samples;Min_cycle;Max_cycle;Signal;HPM_P1;HPM_P2
2023/08/02 00:01:11;;;;;;;2.90;2.53;;;16.40;99.90;;;;;;4993008;28;20203;-74
2023/08/02 00:03:36;;;;;;;7.20;3.83;;;16.40;99.90;;;;;;4993770;28;20267;-74
2023/08/02 00:06:02;;;;;;;5.70;2.80;;;16.50;99.90;;;;;;4991759;28;20191;-75
2023/08/02 00:08:28;;;;;;;4.00;2.63;;;16.50;99.90;;;;;;4992208;28;20195;-74
2023/08/02 00:10:54;;;;;;;7.63;2.97;;;16.50;99.90;;;;;;4992635;28;20210;-73
2023/08/02 00:13:19;;;;;;;4.80;2.73;;;16.70;99.90;;;;;;4991347;28;20848;-74
2023/08/02 00:15:45;;;;;;;5.53;2.70;;;16.50;99.90;;;;;;4991516;28;20187;-74
2023/08/02 00:18:10;;;;;;;2.50;2.30;;;16.50;99.90;;;;;;4992632;28;20226;-73
2023/08/02 00:20:37;;;;;;;3.03;2.70;;;16.60;99.90;;;;;;4991815;28;20187;-73
2023/08/02 00:23:03;;;;;;;5.77;2.53;;;16.60;99.90;;;;;;4991852;28;20179;-74
2023/08/02 00:25:29;;;;;;;3.33;2.20;;;16.60;99.90;;;;;;4991858;28;20438;-74
2023/08/02 00:27:55;;;;;;;4.73;2.60;;;16.60;99.90;;;;;;4992430;28;20211;-74
2023/08/02 00:30:20;;;;;;;2.80;2.57;;;16.60;99.90;;;;;;4989225;28;20182;-75
2023/08/02 00:32:47;;;;;;;4.50;3.00;;;16.70;99.90;;;;;;4992616;28;20474;-74
2023/08/02 00:35:13;;;;;;;3.77;3.20;;;16.60;99.90;;;;;;4990875;28;20580;-74
2023/08/02 00:37:39;;;;;;;4.40;3.17;;;16.70;99.90;;;;;;4990964;28;20454;-75
2023/08/02 00:40:05;;;;;;;3.87;3.03;;;16.60;99.90;;;;;;4990140;28;20687;-74
2023/08/02 00:42:31;;;;;;;3.80;2.40;;;16.60;99.90;;;;;;4990220;28;20437;-74
2023/08/02 00:44:56;;;;;;;3.93;2.80;;;16.60;99.90;;;;;;4991871;28;20446;-73
2023/08/02 00:47:24;;;;;;;2.47;2.27;;;16.50;99.90;;;;;;4991507;28;20306;-75
2023/08/02 00:49:49;;;;;;;5.07;2.63;;;16.50;99.90;;;;;;4989943;28;20314;-73
2023/08/02 00:52:15;;;;;;;3.97;2.40;;;16.50;99.90;;;;;;4988365;28;20549;-74
2023/08/02 00:54:41;;;;;;;3.13;2.83;;;16.40;99.90;;;;;;4990072;28;20188;-74
2023/08/02 00:57:08;;;;;;;4.00;3.10;;;16.40;99.90;;;;;;4991128;28;20195;-74
2023/08/02 00:59:40;;;;;;;5.90;3.30;;;16.30;99.90;;;;;;4990604;28;20512;-75
2023/08/02 01:02:06;;;;;;;3.37;3.07;;;16.30;99.90;;;;;;4990148;28;20469;-74
2023/08/02 01:04:33;;;;;;;5.60;3.10;;;16.20;99.90;;;;;;4991627;28;20470;-73
2023/08/02 01:07:07;;;;;;;6.80;3.47;;;16.10;99.90;;;;;;4991469;28;20481;-74
2023/08/02 01:09:42;;;;;;;6.20;3.20;;;16.10;99.90;;;;;;4990196;28;21162;-73
2023/08/02 01:12:10;;;;;;;4.47;3.10;;;16.00;99.90;;;;;;4990100;28;20469;-74
2023/08/02 01:14:49;;;;;;;4.27;3.37;;;16.00;99.90;;;;;;4991615;28;20450;-75
2023/08/02 01:17:16;;;;;;;3.40;2.57;;;16.00;99.90;;;;;;4984664;28;20605;-73
2023/08/02 01:19:42;;;;;;;3.70;3.40;;;16.00;99.90;;;;;;4990112;28;20427;-74
2023/08/02 01:22:08;;;;;;;4.07;3.20;;;15.90;99.90;;;;;;4990598;28;20467;-73
2023/08/02 01:24:35;;;;;;;4.93;2.80;;;15.90;99.90;;;;;;4992155;28;20478;-73
2023/08/02 01:27:13;;;;;;;4.43;2.97;;;15.80;99.90;;;;;;4990390;28;20459;-75
2023/08/02 01:29:45;;;;;;;4.23;3.03;;;15.80;99.90;;;;;;4987111;28;20454;-76
2023/08/02 01:32:11;;;;;;;3.47;3.07;;;15.70;99.90;;;;;;4991307;28;20470;-73
2023/08/02 01:34:38;;;;;;;3.13;2.50;;;15.70;99.90;;;;;;4991454;28;20435;-73
2023/08/02 01:37:04;;;;;;;4.60;3.30;;;15.70;99.90;;;;;;4989152;28;20665;-74
2023/08/02 01:39:30;;;;;;;2.80;2.60;;;15.70;99.90;;;;;;4990492;28;20967;-76
2023/08/02 01:41:55;;;;;;;5.90;3.20;;;15.70;99.90;;;;;;4989105;28;20184;-74
2023/08/02 01:44:21;;;;;;;2.87;2.60;;;15.60;99.90;;;;;;4989348;28;20179;-73
2023/08/02 01:46:46;;;;;;;5.07;2.77;;;15.60;99.90;;;;;;4990464;28;20211;-75
2023/08/02 01:49:12;;;;;;;3.10;2.80;;;15.60;99.90;;;;;;4990911;28;20789;-74
2023/08/02 01:51:37;;;;;;;3.90;2.60;;;15.60;99.90;;;;;;4989192;28;20234;-78
2023/08/02 01:54:03;;;;;;;3.87;2.40;;;15.50;99.90;;;;;;4991221;28;20179;-75
2023/08/02 01:56:28;;;;;;;4.17;2.87;;;15.50;99.90;;;;;;4988846;28;20752;-73
2023/08/02 01:58:54;;;;;;;5.73;2.80;;;15.50;99.90;;;;;;4987686;28;20191;-73
2023/08/02 02:01:19;;;;;;;4.40;3.10;;;15.40;99.90;;;;;;4990681;28;20238;-73
2023/08/02 02:03:45;;;;;;;3.37;3.07;;;15.40;99.90;;;;;;4989730;28;20604;-74
2023/08/02 02:06:10;;;;;;;3.37;3.07;;;15.40;99.90;;;;;;4990694;28;20175;-75
2023/08/02 02:08:36;;;;;;;3.10;2.80;;;15.40;99.90;;;;;;4990081;28;20183;-73
2023/08/02 02:11:02;;;;;;;5.00;3.03;;;15.40;99.90;;;;;;4989590;28;20569;-74
2023/08/02 02:13:28;;;;;;;3.20;2.77;;;15.40;99.90;;;;;;4990509;28;20206;-73
2023/08/02 02:15:53;;;;;;;2.97;2.67;;;15.40;99.90;;;;;;4989992;28;20479;-75
2023/08/02 02:18:19;;;;;;;3.30;3.00;;;15.40;99.90;;;;;;4988324;28;20665;-74
2023/08/02 02:20:44;;;;;;;2.67;2.43;;;15.40;99.90;;;;;;4991810;28;20257;-74
2023/08/02 02:23:10;;;;;;;5.23;2.80;;;15.50;99.90;;;;;;4990195;28;20207;-74
2023/08/02 02:25:35;;;;;;;5.27;3.10;;;15.50;99.90;;;;;;4990886;28;20194;-74
2023/08/02 02:28:01;;;;;;;3.83;3.20;;;15.50;99.90;;;;;;4996281;28;20276;-74
2023/08/02 02:30:26;;;;;;;3.30;3.00;;;15.50;99.90;;;;;;4990310;28;20948;-74
2023/08/02 02:32:52;;;;;;;3.83;3.00;;;15.50;99.90;;;;;;5000809;28;20232;-75
2023/08/02 02:35:18;;;;;;;4.47;2.40;;;15.50;99.90;;;;;;4995335;28;20208;-75
2023/08/02 02:37:44;;;;;;;4.80;2.73;;;15.60;99.90;;;;;;4987314;28;20233;-76
2023/08/02 02:40:10;;;;;;;3.00;2.40;;;15.60;99.90;;;;;;4991535;28;20446;-74
2023/08/02 02:42:40;;;;;;;3.43;2.80;;;15.60;99.90;;;;;;4994555;28;20183;-74
2023/08/02 02:45:07;;;;;;;3.87;3.07;;;15.60;99.90;;;;;;4992455;28;20807;-74
2023/08/02 02:47:33;;;;;;;3.80;2.50;;;15.60;99.90;;;;;;4996245;28;20462;-74
2023/08/02 02:49:58;;;;;;;3.60;3.00;;;15.60;99.90;;;;;;4993391;28;20454;-74
2023/08/02 02:52:24;;;;;;;9.63;2.97;;;15.60;99.90;;;;;;4990576;28;20223;-73
2023/08/02 02:54:49;;;;;;;6.23;2.93;;;15.60;99.90;;;;;;4994750;28;20175;-74
2023/08/02 02:57:15;;;;;;;5.80;3.13;;;15.60;99.90;;;;;;4993127;28;20715;-74
2023/08/02 02:59:40;;;;;;;2.80;2.60;;;15.60;99.90;;;;;;4992725;28;20214;-74
2023/08/02 03:02:06;;;;;;;4.30;2.83;;;15.60;99.90;;;;;;4993776;28;20191;-74
2023/08/02 03:04:31;;;;;;;2.73;2.53;;;15.70;99.90;;;;;;4994403;28;20653;-74
2023/08/02 03:06:57;;;;;;;3.20;2.90;;;15.70;99.90;;;;;;5016018;28;20204;-73
2023/08/02 03:09:22;;;;;;;7.03;2.77;;;15.70;99.90;;;;;;4994063;28;20176;-74
2023/08/02 03:11:48;;;;;;;3.70;2.30;;;15.70;99.90;;;;;;4992434;28;20569;-74
2023/08/02 03:14:14;;;;;;;4.10;2.73;;;15.80;99.90;;;;;;4993545;28;20180;-74
2023/08/02 03:16:43;;;;;;;2.77;2.53;;;15.80;99.90;;;;;;4985989;28;20216;-74
2023/08/02 03:19:09;;;;;;;3.73;2.83;;;15.80;99.90;;;;;;4990157;28;20237;-73
2023/08/02 03:21:34;;;;;;;4.50;2.83;;;15.80;99.90;;;;;;4993228;28;20510;-74
2023/08/02 03:24:00;;;;;;;4.00;2.60;;;15.80;99.90;;;;;;4988146;28;20522;-74
2023/08/02 03:26:25;;;;;;;4.03;2.80;;;15.90;99.90;;;;;;4992880;28;20286;-74
2023/08/02 03:28:51;;;;;;;3.73;2.67;;;15.90;99.90;;;;;;4991878;28;20223;-74
2023/08/02 03:31:16;;;;;;;2.53;2.33;;;15.90;99.90;;;;;;4986962;28;20239;-73
2023/08/02 03:33:42;;;;;;;3.10;2.90;;;15.90;99.90;;;;;;4992875;28;20654;-74
2023/08/02 03:36:08;;;;;;;4.43;2.87;;;15.90;99.90;;;;;;4992724;28;20184;-74
2023/08/02 03:38:33;;;;;;;3.77;3.47;;;15.90;99.90;;;;;;4991686;28;20270;-73
2023/08/02 03:41:00;;;;;;;3.37;3.17;;;16.00;99.90;;;;;;4992317;28;20438;-74
2023/08/02 03:43:25;;;;;;;2.57;2.37;;;16.00;99.90;;;;;;4992419;28;20529;-74
2023/08/02 03:45:51;;;;;;;2.83;2.60;;;16.00;99.90;;;;;;4992405;28;20457;-74
2023/08/02 03:48:16;;;;;;;3.50;2.67;;;16.00;99.90;;;;;;4991074;28;20211;-74
2023/08/02 03:50:42;;;;;;;5.40;3.10;;;16.00;99.90;;;;;;4992523;28;20182;-77
2023/08/02 03:53:08;;;;;;;3.60;2.80;;;16.00;99.90;;;;;;4992700;28;20188;-74
2023/08/02 03:55:34;;;;;;;2.93;2.57;;;16.00;99.90;;;;;;4992359;28;20457;-75
2023/08/02 03:57:59;;;;;;;2.87;2.67;;;16.00;99.90;;;;;;4987515;28;20203;-74
2023/08/02 04:00:25;;;;;;;6.93;3.33;;;16.00;99.90;;;;;;4991378;28;20291;-74
2023/08/02 04:02:50;;;;;;;2.63;2.33;;;16.00;99.90;;;;;;4992497;28;20179;-74
2023/08/02 04:05:16;;;;;;;8.60;3.50;;;16.00;99.90;;;;;;4993572;28;20631;-74
2023/08/02 04:07:41;;;;;;;3.50;2.70;;;16.00;99.90;;;;;;4991626;28;20294;-75
2023/08/02 04:10:07;;;;;;;4.03;3.03;;;16.10;99.90;;;;;;4990980;28;20183;-75
2023/08/02 04:12:33;;;;;;;5.30;2.97;;;16.10;99.90;;;;;;4984086;28;20239;-75
2023/08/02 04:14:58;;;;;;;4.80;2.50;;;16.10;99.90;;;;;;4992941;28;20469;-74
2023/08/02 04:17:27;;;;;;;3.43;2.37;;;16.10;99.90;;;;;;4992678;28;20215;-74
2023/08/02 04:19:52;;;;;;;3.03;2.77;;;16.00;99.90;;;;;;4994727;28;20262;-74
2023/08/02 04:22:18;;;;;;;3.60;2.80;;;16.00;99.90;;;;;;4992130;28;20529;-74
2023/08/02 04:24:43;;;;;;;3.97;3.33;;;15.90;99.90;;;;;;4992905;28;20194;-73
2023/08/02 04:27:09;;;;;;;4.37;3.60;;;15.80;99.90;;;;;;4992474;28;20213;-74
2023/08/02 04:29:34;;;;;;;3.20;2.90;;;15.60;99.90;;;;;;4993088;28;20213;-74
2023/08/02 04:32:00;;;;;;;4.93;4.43;;;15.50;99.90;;;;;;4993888;28;20831;-73
2023/08/02 04:34:25;;;;;;;4.20;3.30;;;15.30;99.90;;;;;;4992065;28;20673;-73
2023/08/02 04:36:51;;;;;;;8.60;4.47;;;15.20;99.90;;;;;;4991223;28;20278;-73
2023/08/02 04:39:17;;;;;;;7.57;3.47;;;15.10;99.90;;;;;;4991031;28;20783;-73
2023/08/02 04:41:42;;;;;;;5.27;4.77;;;15.00;99.90;;;;;;4991501;28;20442;-73
2023/08/02 04:44:08;;;;;;;5.03;3.60;;;14.90;99.90;;;;;;4992063;28;20214;-73
2023/08/02 04:46:33;;;;;;;6.20;3.67;;;14.90;99.90;;;;;;4991767;28;20211;-73
2023/08/02 04:48:59;;;;;;;6.40;3.90;;;14.80;99.90;;;;;;4991131;28;20191;-73
2023/08/02 04:51:25;;;;;;;5.87;3.57;;;14.80;99.90;;;;;;4990623;28;20253;-74
2023/08/02 04:53:50;;;;;;;3.70;3.30;;;14.70;99.90;;;;;;4990331;28;20179;-73
2023/08/02 04:56:17;;;;;;;4.53;3.43;;;14.70;99.90;;;;;;4991264;28;20307;-73
2023/08/02 04:58:42;;;;;;;6.87;4.60;;;14.70;99.90;;;;;;4992847;28;20322;-71
2023/08/02 05:01:08;;;;;;;6.13;4.53;;;14.70;99.90;;;;;;4991121;28;20537;-72
2023/08/02 05:03:34;;;;;;;4.50;3.60;;;14.70;99.90;;;;;;4993546;28;20283;-73
2023/08/02 05:06:05;;;;;;;4.70;4.23;;;14.60;99.90;;;;;;4994752;28;20180;-73
2023/08/02 05:08:34;;;;;;;4.67;3.77;;;14.60;99.90;;;;;;4989013;28;20947;-72
2023/08/02 05:10:59;;;;;;;5.73;4.33;;;14.60;99.90;;;;;;4991779;28;20528;-72
2023/08/02 05:13:26;;;;;;;5.60;4.90;;;14.50;99.90;;;;;;4991523;28;20438;-73
2023/08/02 05:15:53;;;;;;;4.90;4.40;;;14.50;99.90;;;;;;4991859;28;20208;-69
2023/08/02 05:18:18;;;;;;;7.30;4.37;;;14.50;99.90;;;;;;4989627;28;20528;-69
2023/08/02 05:20:44;;;;;;;4.47;4.07;;;14.50;99.90;;;;;;4991939;28;20458;-70
2023/08/02 05:23:09;;;;;;;8.03;4.57;;;14.40;99.90;;;;;;4992127;28;20190;-69
2023/08/02 05:25:35;;;;;;;11.83;8.17;;;14.40;99.90;;;;;;4991075;28;20184;-70
2023/08/02 05:28:02;;;;;;;5.83;5.00;;;14.40;99.90;;;;;;4992515;28;20680;-70
2023/08/02 05:30:28;;;;;;;6.80;4.87;;;14.40;99.90;;;;;;4992272;28;20803;-69
2023/08/02 05:32:54;;;;;;;7.07;4.70;;;14.40;99.90;;;;;;4992219;28;21039;-70
2023/08/02 05:35:20;;;;;;;7.13;4.93;;;14.40;99.90;;;;;;4991491;28;20989;-70
2023/08/02 05:37:46;;;;;;;7.13;4.70;;;14.40;99.90;;;;;;4992738;28;20443;-69
2023/08/02 05:40:12;;;;;;;5.97;4.83;;;14.40;99.90;;;;;;4992118;28;20492;-70
2023/08/02 05:42:37;;;;;;;4.73;4.33;;;14.40;99.90;;;;;;4992825;28;20187;-69
2023/08/02 05:45:03;;;;;;;5.83;4.13;;;14.40;99.90;;;;;;4992169;28;20500;-70
2023/08/02 05:47:30;;;;;;;9.33;7.50;;;14.40;99.90;;;;;;4992505;28;20203;-70
2023/08/02 05:49:56;;;;;;;5.70;5.10;;;14.40;99.90;;;;;;5010499;28;20187;-70
2023/08/02 05:52:21;;;;;;;7.93;5.33;;;14.40;99.90;;;;;;5012063;28;20464;-70
2023/08/02 05:54:47;;;;;;;8.87;4.50;;;14.40;99.90;;;;;;5012292;28;20186;-70
2023/08/02 05:57:12;;;;;;;5.23;4.73;;;14.40;99.90;;;;;;5012145;28;20209;-70
2023/08/02 05:59:38;;;;;;;6.30;4.50;;;14.40;99.90;;;;;;5001646;28;20175;-70
2023/08/02 06:02:05;;;;;;;7.37;6.13;;;14.40;99.90;;;;;;4992515;28;20176;-70
2023/08/02 06:04:32;;;;;;;6.43;5.33;;;14.40;99.90;;;;;;4992531;28;20430;-70
2023/08/02 06:06:57;;;;;;;6.50;5.77;;;14.40;99.90;;;;;;4995596;28;20445;-70
2023/08/02 06:09:23;;;;;;;6.70;4.87;;;14.40;99.90;;;;;;4994829;28;20517;-71
2023/08/02 06:11:48;;;;;;;9.87;5.30;;;14.40;99.90;;;;;;4995945;28;20203;-71
2023/08/02 06:14:14;;;;;;;7.90;5.40;;;14.40;99.90;;;;;;4996481;28;20266;-70
2023/08/02 06:16:40;;;;;;;4.93;4.43;;;14.40;99.90;;;;;;4996151;28;20290;-71
2023/08/02 06:19:05;;;;;;;6.27;5.17;;;14.40;99.90;;;;;;4995474;28;20208;-71
2023/08/02 06:21:31;;;;;;;7.10;5.30;;;14.40;99.90;;;;;;4995030;28;20207;-71
2023/08/02 06:23:56;;;;;;;5.13;4.63;;;14.30;99.90;;;;;;4995938;28;20179;-70
2023/08/02 06:26:22;;;;;;;6.10;5.50;;;14.40;99.90;;;;;;4996048;28;20760;-71
2023/08/02 06:28:48;;;;;;;11.30;5.03;;;14.40;99.90;;;;;;4995504;28;20298;-71
2023/08/02 06:31:13;;;;;;;7.63;5.70;;;14.50;99.90;;;;;;4996247;28;20195;-71
2023/08/02 06:33:39;;;;;;;5.87;5.37;;;14.50;99.90;;;;;;4996181;28;20421;-71
2023/08/02 06:36:04;;;;;;;5.80;5.30;;;14.60;99.90;;;;;;4995160;28;20634;-71
2023/08/02 06:38:32;;;;;;;6.33;5.50;;;14.60;99.90;;;;;;4994977;28;20187;-70
2023/08/02 06:40:58;;;;;;;11.13;6.47;;;14.60;99.90;;;;;;4994518;28;20160;-70
2023/08/02 06:43:23;;;;;;;6.10;5.27;;;14.70;99.90;;;;;;4995837;28;20425;-71
2023/08/02 06:45:49;;;;;;;6.30;5.70;;;14.70;99.90;;;;;;4995990;28;20175;-71
2023/08/02 06:48:19;;;;;;;7.17;5.03;;;14.70;99.90;;;;;;4995147;28;20194;-70
2023/08/02 06:50:45;;;;;;;6.03;5.53;;;14.80;99.90;;;;;;4995138;28;20231;-70
2023/08/02 06:53:10;;;;;;;7.33;6.63;;;14.80;99.90;;;;;;4995686;28;20442;-70
2023/08/02 06:55:36;;;;;;;7.60;6.00;;;14.90;99.90;;;;;;4995882;28;20634;-70
2023/08/02 06:58:01;;;;;;;6.97;6.00;;;14.90;99.90;;;;;;4995703;28;20196;-70
2023/08/02 07:00:32;;;;;;;9.00;7.00;;;15.00;99.90;;;;;;4995082;28;20230;-70
2023/08/02 07:03:05;;;;;;;5.07;4.60;;;15.00;99.90;;;;;;4995001;28;20175;-70
2023/08/02 07:05:30;;;;;;;7.27;5.90;;;15.00;99.90;;;;;;4995527;28;20434;-70
2023/08/02 07:07:56;;;;;;;7.40;6.30;;;15.00;99.90;;;;;;4995512;28;20443;-70
2023/08/02 07:10:23;;;;;;;8.47;6.80;;;15.00;99.90;;;;;;4994865;28;20175;-70
2023/08/02 07:12:49;;;;;;;5.70;5.17;;;15.00;99.90;;;;;;4995355;28;20987;-69
2023/08/02 07:15:16;;;;;;;6.77;5.43;;;15.10;99.90;;;;;;4995453;28;20422;-69
2023/08/02 07:17:41;;;;;;;7.97;6.17;;;15.10;99.90;;;;;;4993183;28;20947;-69
2023/08/02 07:20:08;;;;;;;7.67;6.00;;;15.20;99.90;;;;;;4994014;28;20537;-69
2023/08/02 07:22:33;;;;;;;7.00;5.53;;;15.30;99.90;;;;;;4995218;28;20191;-70
2023/08/02 07:24:59;;;;;;;5.90;5.30;;;15.40;99.90;;;;;;4995330;28;20423;-69
2023/08/02 07:27:24;;;;;;;7.43;5.50;;;15.50;99.90;;;;;;4995197;28;20603;-69
2023/08/02 07:29:51;;;;;;;6.70;5.60;;;15.60;99.90;;;;;;4993784;28;20195;-69
2023/08/02 07:32:17;;;;;;;6.00;4.97;;;15.60;99.90;;;;;;4994930;28;20641;-69
2023/08/02 07:34:42;;;;;;;7.70;5.77;;;15.60;99.90;;;;;;4995308;28;20429;-69
2023/08/02 07:37:08;;;;;;;9.77;5.47;;;15.60;99.90;;;;;;4994924;28;20434;-69
2023/08/02 07:39:34;;;;;;;5.73;5.23;;;15.50;99.90;;;;;;4994403;28;20203;-69
2023/08/02 07:41:59;;;;;;;7.53;6.60;;;15.50;99.90;;;;;;4995077;28;20668;-69
2023/08/02 07:44:25;;;;;;;6.80;6.10;;;15.50;99.90;;;;;;4994381;28;20183;-69
2023/08/02 07:46:50;;;;;;;6.53;5.20;;;15.60;99.90;;;;;;4994732;28;20199;-69
2023/08/02 07:49:16;;;;;;;6.90;5.47;;;15.60;99.90;;;;;;4994110;28;20582;-69
2023/08/02 07:51:42;;;;;;;8.93;5.90;;;15.70;99.90;;;;;;4994718;28;20661;-70
2023/08/02 07:54:07;;;;;;;6.33;5.73;;;15.70;99.90;;;;;;4994788;28;20411;-70
2023/08/02 07:56:33;;;;;;;6.60;6.00;;;15.80;99.90;;;;;;4993824;28;20595;-69
2023/08/02 07:58:58;;;;;;;6.10;5.57;;;15.80;99.90;;;;;;4993865;28;20179;-70
2023/08/02 08:01:24;;;;;;;8.87;5.50;;;15.80;99.90;;;;;;4994535;28;20194;-70
2023/08/02 08:03:49;;;;;;;6.57;5.10;;;15.80;99.90;;;;;;4994561;28;20183;-69
2023/08/02 08:06:19;;;;;;;6.20;5.60;;;15.80;99.90;;;;;;4994422;28;20222;-69
2023/08/02 08:08:45;;;;;;;6.77;6.07;;;15.90;99.90;;;;;;4993702;28;20230;-69
2023/08/02 08:11:11;;;;;;;6.37;5.77;;;16.00;99.90;;;;;;4992683;28;20455;-69
2023/08/02 08:13:36;;;;;;;6.80;6.20;;;16.10;99.90;;;;;;4993382;28;20189;-70
2023/08/02 08:16:02;;;;;;;7.10;5.17;;;16.10;99.90;;;;;;4994020;28;20705;-69
2023/08/02 08:18:31;;;;;;;7.50;5.03;;;16.20;99.90;;;;;;4992382;28;20183;-69
2023/08/02 08:20:56;;;;;;;6.13;4.93;;;16.20;99.90;;;;;;4994431;28;20418;-69
2023/08/02 08:23:22;;;;;;;6.83;5.97;;;16.30;99.90;;;;;;4994191;28;20445;-69
2023/08/02 08:25:47;;;;;;;6.70;5.37;;;16.30;99.90;;;;;;4993618;28;20242;-69
2023/08/02 08:28:13;;;;;;;6.17;5.10;;;16.30;99.90;;;;;;4993306;28;20191;-69
2023/08/02 08:30:38;;;;;;;6.60;5.30;;;16.30;99.90;;;;;;4994051;28;20183;-69
2023/08/02 08:33:04;;;;;;;5.87;5.27;;;16.40;99.90;;;;;;4993513;28;20669;-69
2023/08/02 08:35:32;;;;;;;7.53;4.80;;;16.40;99.90;;;;;;4993967;28;20183;-69
2023/08/02 08:37:58;;;;;;;4.50;4.10;;;16.50;99.90;;;;;;4993280;28;20196;-69
2023/08/02 08:40:24;;;;;;;8.47;6.50;;;16.50;99.90;;;;;;4993054;28;20438;-69
2023/08/02 08:42:55;;;;;;;5.10;4.50;;;16.60;99.90;;;;;;4993794;28;20194;-69
2023/08/02 08:45:23;;;;;;;5.40;4.50;;;16.60;99.90;;;;;;4993701;28;20187;-69
2023/08/02 08:47:49;;;;;;;6.10;5.60;;;16.60;99.90;;;;;;4993962;28;21019;-69
2023/08/02 08:50:16;;;;;;;5.67;4.87;;;16.70;99.90;;;;;;4992991;28;20431;-69
2023/08/02 08:52:46;;;;;;;5.30;4.10;;;16.70;99.90;;;;;;4992863;28;20498;-69
2023/08/02 08:55:14;;;;;;;5.60;5.00;;;16.70;99.90;;;;;;4993512;28;20438;-69
2023/08/02 08:57:41;;;;;;;6.10;4.57;;;16.70;99.90;;;;;;4993552;28;20450;-69
2023/08/02 09:00:10;;;;;;;10.17;6.17;;;16.70;99.90;;;;;;4992689;28;20509;-69
2023/08/02 09:02:41;;;;;;;7.00;4.87;;;16.70;99.90;;;;;;4993401;28;20431;-69
2023/08/02 09:05:08;;;;;;;6.10;4.90;;;16.70;99.90;;;;;;4992820;28;20816;-69
2023/08/02 09:07:34;;;;;;;6.07;5.47;;;16.70;99.90;;;;;;4993101;28;20610;-68
2023/08/02 09:10:00;;;;;;;4.50;4.10;;;16.70;99.90;;;;;;4992653;28;20510;-69
2023/08/02 09:12:27;;;;;;;5.00;4.30;;;16.70;99.90;;;;;;4993134;28;20551;-69
2023/08/02 09:15:04;;;;;;;5.07;4.57;;;16.70;99.90;;;;;;4993291;28;20560;-69
2023/08/02 09:17:50;;;;;;;5.13;4.00;;;16.70;99.90;;;;;;4993021;28;20842;-69
2023/08/02 09:20:18;;;;;;;5.23;4.73;;;16.60;99.90;;;;;;4991964;28;20438;-69
2023/08/02 09:22:43;;;;;;;6.73;4.83;;;16.60;99.90;;;;;;4993154;28;20932;-69
2023/08/02 09:25:21;;;;;;;5.90;5.30;;;16.70;99.90;;;;;;4993012;28;20427;-69
2023/08/02 09:27:48;;;;;;;7.20;6.07;;;16.80;99.90;;;;;;4993039;28;20203;-68
2023/08/02 09:30:30;;;;;;;8.73;5.63;;;16.80;99.90;;;;;;4992168;28;20431;-68
2023/08/02 09:33:00;;;;;;;5.63;5.13;;;16.90;99.90;;;;;;4992237;28;20482;-69
2023/08/02 09:35:27;;;;;;;6.43;5.83;;;17.10;99.90;;;;;;4986430;28;20481;-68
2023/08/02 09:37:52;;;;;;;5.93;5.37;;;17.30;99.90;;;;;;4992754;28;20801;-69
2023/08/02 09:40:20;;;;;;;5.23;4.77;;;17.40;99.90;;;;;;4991778;28;20427;-69
2023/08/02 09:42:45;;;;;;;6.37;5.77;;;17.40;99.90;;;;;;4992863;28;20879;-68
2023/08/02 09:45:11;;;;;;;6.50;5.80;;;17.40;99.90;;;;;;4992870;28;20454;-68
2023/08/02 09:47:36;;;;;;;7.67;4.70;;;17.40;99.90;;;;;;4992626;28;20223;-69
2023/08/02 09:50:10;;;;;;;7.10;6.40;;;17.40;99.90;;;;;;4991884;28;20218;-69
2023/08/02 09:52:38;;;;;;;5.90;5.30;;;17.50;99.90;;;;;;4992533;28;20211;-68
2023/08/02 09:55:04;;;;;;;6.60;6.00;;;17.50;99.90;;;;;;4992665;28;20453;-69
2023/08/02 09:57:31;;;;;;;6.50;5.90;;;17.60;99.90;;;;;;4992587;28;20447;-69
2023/08/02 10:00:04;;;;;;;7.23;6.53;;;17.70;99.90;;;;;;4991886;28;20935;-69
2023/08/02 10:02:30;;;;;;;6.13;5.63;;;17.80;99.90;;;;;;4991505;28;20820;-68
2023/08/02 10:04:57;;;;;;;6.90;6.10;;;17.90;99.90;;;;;;4991986;28;20450;-69
2023/08/02 10:07:49;;;;;;;7.60;6.90;;;18.00;99.90;;;;;;4992433;28;20446;-68
2023/08/02 10:10:18;;;;;;;6.77;6.07;;;18.10;99.90;;;;;;4988775;28;20441;-68
2023/08/02 10:12:52;;;;;;;5.87;5.37;;;18.30;99.90;;;;;;4992317;28;20450;-68
2023/08/02 10:15:18;;;;;;;6.63;6.03;;;18.30;99.90;;;;;;4991520;28;20800;-68
2023/08/02 10:17:46;;;;;;;6.00;5.50;;;18.30;99.90;;;;;;4991996;28;20573;-68
2023/08/02 10:20:13;;;;;;;6.33;5.70;;;18.20;99.90;;;;;;4990005;28;20470;-69
2023/08/02 10:22:40;;;;;;;7.20;6.30;;;18.10;99.90;;;;;;4992301;28;20423;-69
2023/08/02 10:25:07;;;;;;;6.30;5.70;;;18.00;99.90;;;;;;4992391;28;20496;-69
2023/08/02 10:27:34;;;;;;;8.77;6.30;;;17.90;99.90;;;;;;4992184;28;20450;-69
2023/08/02 10:30:01;;;;;;;9.00;8.10;;;17.90;99.90;;;;;;4990682;28;20442;-69
2023/08/02 10:32:26;;;;;;;7.40;6.70;;;17.90;99.90;;;;;;4992265;28;20463;-69
2023/08/02 10:34:52;;;;;;;6.97;6.33;;;17.90;99.90;;;;;;4992338;28;20912;-69
2023/08/02 10:37:20;;;;;;;7.57;6.87;;;17.90;99.90;;;;;;4992196;28;20196;-69
2023/08/02 10:39:46;;;;;;;7.50;5.77;;;17.90;99.90;;;;;;4991542;28;20175;-68
2023/08/02 10:42:25;;;;;;;7.27;6.53;;;17.90;99.90;;;;;;4992218;28;20893;-68
2023/08/02 10:44:57;;;;;;;8.10;6.47;;;17.80;99.90;;;;;;4992482;28;20183;-69
2023/08/02 10:47:34;;;;;;;7.63;6.80;;;17.80;99.90;;;;;;4992113;28;20442;-68
2023/08/02 10:50:01;;;;;;;7.30;6.60;;;17.80;99.90;;;;;;4991389;28;20430;-68
2023/08/02 10:52:31;;;;;;;9.50;7.37;;;17.90;99.90;;;;;;4992320;28;20493;-68
2023/08/02 10:55:16;;;;;;;6.53;5.90;;;17.90;99.90;;;;;;4995908;28;20474;-68
2023/08/02 10:58:05;;;;;;;6.77;6.17;;;18.00;99.90;;;;;;4995114;28;20459;-68
2023/08/02 11:00:32;;;;;;;11.37;7.10;;;18.10;99.90;;;;;;4989487;28;20425;-69
2023/08/02 11:02:59;;;;;;;7.17;6.57;;;18.30;99.90;;;;;;4995676;28;20426;-69
2023/08/02 11:05:46;;;;;;;7.27;5.47;;;18.40;99.90;;;;;;4995876;28;20481;-68
2023/08/02 11:08:12;;;;;;;6.70;6.00;;;18.60;99.90;;;;;;4995089;28;21324;-68
2023/08/02 11:10:48;;;;;;;7.17;6.43;;;18.80;99.90;;;;;;4995571;28;20514;-68
2023/08/02 11:13:14;;;;;;;7.43;6.40;;;19.00;99.90;;;;;;4994879;28;20866;-68
2023/08/02 11:15:40;;;;;;;5.97;5.47;;;19.00;99.90;;;;;;4995516;28;20419;-68
2023/08/02 11:18:05;;;;;;;5.80;5.30;;;19.10;99.90;;;;;;5014056;22;20224;-67
2023/08/02 11:20:35;;;;;;;6.00;5.50;;;19.10;99.90;;;;;;4989317;28;20186;-67
2023/08/02 11:23:01;;;;;;;6.27;5.67;;;19.20;99.90;;;;;;4995284;28;20229;-68
2023/08/02 11:25:27;;;;;;;5.90;5.33;;;19.20;99.90;;;;;;4995406;28;20951;-68
2023/08/02 11:28:03;;;;;;;6.80;5.60;;;19.40;99.90;;;;;;4984686;28;20294;-67
2023/08/02 11:30:28;;;;;;;5.87;5.33;;;19.80;99.90;;;;;;4994606;28;20175;-68
2023/08/02 11:32:54;;;;;;;7.80;5.93;;;20.10;99.90;;;;;;4995139;28;20470;-68
2023/08/02 11:35:20;;;;;;;7.50;5.50;;;20.40;99.90;;;;;;4995193;28;20719;-68
2023/08/02 11:37:46;;;;;;;6.07;5.47;;;20.80;99.90;;;;;;4994995;28;20191;-68
2023/08/02 11:40:13;;;;;;;5.20;4.80;;;21.70;99.90;;;;;;4977691;28;20901;-68
2023/08/02 11:42:47;;;;;;;4.93;4.57;;;24.00;99.90;;;;;;4983707;28;20435;-68
2023/08/02 11:45:13;;;;;;;5.17;4.67;;;25.90;99.90;;;;;;4995024;28;20434;-68
2023/08/02 11:47:38;;;;;;;4.57;4.17;;;26.10;99.90;;;;;;4994995;28;20450;-68
2023/08/02 11:50:04;;;;;;;5.63;5.13;;;26.50;99.90;;;;;;4994267;28;20179;-68
2023/08/02 11:52:32;;;;;;;5.50;5.10;;;27.00;99.90;;;;;;4994849;28;20211;-68
2023/08/02 11:54:58;;;;;;;5.63;4.30;;;27.80;99.90;;;;;;4984445;28;20548;-68
2023/08/02 11:57:25;;;;;;;5.03;4.40;;;28.40;99.90;;;;;;4994718;28;20435;-69
2023/08/02 11:59:53;;;;;;;5.53;5.13;;;28.60;99.90;;;;;;4994069;28;20446;-69
2023/08/02 12:02:33;;;;;;;4.90;4.50;;;28.50;99.90;;;;;;4994770;28;20434;-69
2023/08/02 12:05:06;;;;;;;6.60;4.40;;;27.90;99.90;;;;;;4994331;28;20569;-69
2023/08/02 12:07:33;;;;;;;4.67;4.27;;;27.20;99.90;;;;;;4987475;28;20558;-68
2023/08/02 12:10:03;;;;;;;5.20;4.80;;;26.80;99.90;;;;;;4982444;28;20431;-68
2023/08/02 12:12:29;;;;;;;4.87;4.40;;;26.60;99.90;;;;;;4975022;28;20546;-68
2023/08/02 12:14:56;;;;;;;5.17;4.20;;;26.70;99.90;;;;;;4975047;28;20419;-68
2023/08/02 12:17:23;;;;;;;4.40;4.00;;;26.50;99.90;;;;;;4974806;28;20475;-68
2023/08/02 12:19:49;;;;;;;4.37;4.07;;;25.80;99.90;;;;;;4974358;28;20420;-68
2023/08/02 12:22:16;;;;;;;5.10;4.70;;;25.50;99.90;;;;;;4977724;28;20572;-68
2023/08/02 12:24:41;;;;;;;4.83;4.40;;;25.80;99.90;;;;;;4986068;28;20433;-68
2023/08/02 12:27:14;;;;;;;4.77;4.37;;;27.10;99.90;;;;;;4984174;28;20466;-69
2023/08/02 12:29:41;;;;;;;4.03;3.73;;;27.90;99.90;;;;;;4992647;28;20283;-69
2023/08/02 12:32:07;;;;;;;5.70;4.40;;;28.90;99.90;;;;;;4998851;28;20489;-69
2023/08/02 12:34:33;;;;;;;4.50;3.40;;;29.10;99.90;;;;;;4997553;28;20450;-69
2023/08/02 12:36:59;;;;;;;4.30;4.00;;;28.90;99.90;;;;;;4991053;28;20462;-68
2023/08/02 12:39:25;;;;;;;4.47;4.07;;;28.90;99.90;;;;;;4989581;28;20178;-68
2023/08/02 12:41:51;;;;;;;4.60;4.27;;;28.40;99.90;;;;;;4994699;28;20433;-68
2023/08/02 12:44:16;;;;;;;4.87;3.53;;;27.00;99.90;;;;;;4994267;28;20905;-68